LOT509 EGKK-EGPH
Flight info
| Callsign | LOT509 |
|---|---|
| Flight time | 1h 2m |
| Altitude | 34000 |
| Route | LAM L10 BPK UN601 RIBEL DCT INPIP |
| Aircraft | B38M/M-SDE1FGHILORVWXY/HB1 |
Departure
| Time | 2026-05-05 17:07 |
|---|---|
| Airport | London Gatwick Airport (EGKK) |
Arrival
| Time | 2026-05-05 18:09 |
|---|---|
| Airport | Edinburgh Airport (EGPH) |
| Time | Latitude | Longitude | Altitude | Speed | Heading |
|---|---|---|---|---|---|
| 2026-05-05 16:32 | 51.15586 | -0.16904 | 215 ft | 0 kts | 167° |
| 2026-05-05 16:52 | 51.15594 | -0.16907 | 212 ft | 2 kts | 169° |
| 2026-05-05 16:52 | 51.15609 | -0.16910 | 207 ft | 2 kts | 177° |
| 2026-05-05 16:52 | 51.15625 | -0.16909 | 204 ft | 2 kts | 188° |
| 2026-05-05 16:52 | 51.15640 | -0.16903 | 209 ft | 2 kts | 203° |
| 2026-05-05 16:53 | 51.15654 | -0.16890 | 217 ft | 2 kts | 222° |
| 2026-05-05 16:53 | 51.15664 | -0.16871 | 210 ft | 2 kts | 239° |
| 2026-05-05 16:53 | 51.15671 | -0.16848 | 211 ft | 2 kts | 252° |
| 2026-05-05 16:53 | 51.15673 | -0.16835 | 208 ft | 1 kts | 256° |
| 2026-05-05 16:54 | 51.15673 | -0.16833 | 207 ft | 0 kts | 256° |
| 2026-05-05 16:57 | 51.15673 | -0.16835 | 208 ft | 1 kts | 256° |
| 2026-05-05 16:58 | 51.15667 | -0.16873 | 204 ft | 6 kts | 256° |
| 2026-05-05 16:58 | 51.15654 | -0.16972 | 206 ft | 12 kts | 258° |
| 2026-05-05 16:58 | 51.15633 | -0.17125 | 215 ft | 16 kts | 256° |
| 2026-05-05 16:58 | 51.15602 | -0.17327 | 211 ft | 21 kts | 255° |
| 2026-05-05 16:59 | 51.15526 | -0.17518 | 210 ft | 21 kts | 231° |
| 2026-05-05 16:59 | 51.15498 | -0.17673 | 206 ft | 13 kts | 271° |
| 2026-05-05 16:59 | 51.15495 | -0.17841 | 206 ft | 17 kts | 258° |
| 2026-05-05 16:59 | 51.15466 | -0.18046 | 208 ft | 20 kts | 259° |
| 2026-05-05 17:00 | 51.15433 | -0.18255 | 206 ft | 19 kts | 238° |
| 2026-05-05 17:00 | 51.15325 | -0.18254 | 206 ft | 16 kts | 167° |
| 2026-05-05 17:00 | 51.15264 | -0.18233 | 213 ft | 0 kts | 167° |
| 2026-05-05 17:00 | 51.15262 | -0.18232 | 213 ft | 0 kts | 167° |
| 2026-05-05 17:01 | 51.15253 | -0.18229 | 207 ft | 4 kts | 167° |
| 2026-05-05 17:01 | 51.15213 | -0.18228 | 207 ft | 8 kts | 198° |
| 2026-05-05 17:01 | 51.15183 | -0.18319 | 215 ft | 12 kts | 256° |
| 2026-05-05 17:02 | 51.15161 | -0.18474 | 214 ft | 17 kts | 258° |
| 2026-05-05 17:02 | 51.15136 | -0.18683 | 207 ft | 21 kts | 258° |
| 2026-05-05 17:02 | 51.15102 | -0.18938 | 208 ft | 25 kts | 258° |
| 2026-05-05 17:02 | 51.15062 | -0.19234 | 206 ft | 29 kts | 258° |
| 2026-05-05 17:03 | 51.15016 | -0.19564 | 209 ft | 32 kts | 258° |
| 2026-05-05 17:03 | 51.14966 | -0.19927 | 209 ft | 35 kts | 258° |
| 2026-05-05 17:03 | 51.14912 | -0.20313 | 213 ft | 35 kts | 258° |
| 2026-05-05 17:03 | 51.14861 | -0.20682 | 203 ft | 33 kts | 258° |
| 2026-05-05 17:04 | 51.14814 | -0.21025 | 206 ft | 30 kts | 257° |
| 2026-05-05 17:04 | 51.14767 | -0.21307 | 209 ft | 16 kts | 257° |
| 2026-05-05 17:04 | 51.14700 | -0.21395 | 209 ft | 14 kts | 170° |
| 2026-05-05 17:04 | 51.14681 | -0.21382 | 211 ft | 0 kts | 148° |
| 2026-05-05 17:05 | 51.14680 | -0.21382 | 210 ft | 0 kts | 148° |
| 2026-05-05 17:05 | 51.14671 | -0.21371 | 206 ft | 4 kts | 146° |
| 2026-05-05 17:05 | 51.14633 | -0.21338 | 209 ft | 8 kts | 155° |
| 2026-05-05 17:05 | 51.14574 | -0.21304 | 204 ft | 10 kts | 159° |
| 2026-05-05 17:06 | 51.14521 | -0.21219 | 210 ft | 13 kts | 118° |
| 2026-05-05 17:06 | 51.14519 | -0.21134 | 210 ft | 0 kts | 78° |
| 2026-05-05 17:07 | 51.14544 | -0.20959 | 212 ft | 47 kts | 77° |
| 2026-05-05 17:07 | 51.14666 | -0.20078 | 209 ft | 113 kts | 77° |
| 2026-05-05 17:07 | 51.14873 | -0.18576 | 239 ft | 159 kts | 77° |
| 2026-05-05 17:07 | 51.15118 | -0.16816 | 930 ft | 155 kts | 76° |
| 2026-05-05 17:08 | 51.15340 | -0.15215 | 1662 ft | 155 kts | 76° |
| 2026-05-05 17:08 | 51.15598 | -0.13344 | 1787 ft | 180 kts | 76° |
| 2026-05-05 17:08 | 51.15869 | -0.11364 | 2026 ft | 188 kts | 77° |
| 2026-05-05 17:08 | 51.16156 | -0.09277 | 2236 ft | 199 kts | 76° |
| 2026-05-05 17:09 | 51.16500 | -0.07080 | 2409 ft | 209 kts | 66° |
| 2026-05-05 17:09 | 51.17335 | -0.05121 | 2528 ft | 220 kts | 51° |
| 2026-05-05 17:09 | 51.18331 | -0.03103 | 2732 ft | 242 kts | 51° |
| 2026-05-05 17:09 | 51.19394 | -0.00928 | 3327 ft | 251 kts | 51° |
| 2026-05-05 17:10 | 51.20465 | 0.01295 | 4107 ft | 254 kts | 51° |
| 2026-05-05 17:10 | 51.21536 | 0.03519 | 4784 ft | 258 kts | 50° |
| 2026-05-05 17:10 | 51.22643 | 0.05815 | 5073 ft | 262 kts | 50° |
| 2026-05-05 17:10 | 51.23752 | 0.08116 | 5076 ft | 260 kts | 50° |
| 2026-05-05 17:11 | 51.24800 | 0.10469 | 5088 ft | 261 kts | 62° |
| 2026-05-05 17:11 | 51.25312 | 0.13250 | 5115 ft | 264 kts | 76° |
| 2026-05-05 17:11 | 51.25651 | 0.16141 | 5128 ft | 265 kts | 77° |
| 2026-05-05 17:11 | 51.25975 | 0.19041 | 5138 ft | 265 kts | 77° |
| 2026-05-05 17:12 | 51.26315 | 0.21922 | 5151 ft | 265 kts | 76° |
| 2026-05-05 17:12 | 51.26659 | 0.24779 | 5157 ft | 265 kts | 76° |
| 2026-05-05 17:12 | 51.27002 | 0.27671 | 5165 ft | 264 kts | 76° |
| 2026-05-05 17:12 | 51.27342 | 0.30556 | 5171 ft | 264 kts | 76° |
| 2026-05-05 17:13 | 51.27957 | 0.33273 | 5187 ft | 259 kts | 53° |
| 2026-05-05 17:13 | 51.29218 | 0.35281 | 5177 ft | 256 kts | 29° |
| 2026-05-05 17:13 | 51.30881 | 0.36232 | 5172 ft | 255 kts | 5° |
| 2026-05-05 17:13 | 51.32635 | 0.35970 | 5155 ft | 255 kts | 342° |
| 2026-05-05 17:14 | 51.34297 | 0.34952 | 5015 ft | 256 kts | 339° |
| 2026-05-05 17:14 | 51.35920 | 0.33875 | 5024 ft | 256 kts | 338° |
| 2026-05-05 17:14 | 51.37573 | 0.32787 | 5019 ft | 257 kts | 339° |
| 2026-05-05 17:14 | 51.39228 | 0.31718 | 5019 ft | 257 kts | 339° |
| 2026-05-05 17:15 | 51.40885 | 0.30649 | 5008 ft | 257 kts | 339° |
| 2026-05-05 17:15 | 51.42536 | 0.29576 | 5001 ft | 256 kts | 339° |
| 2026-05-05 17:15 | 51.44189 | 0.28501 | 5002 ft | 257 kts | 339° |
| 2026-05-05 17:15 | 51.45840 | 0.27428 | 5002 ft | 257 kts | 339° |
| 2026-05-05 17:16 | 51.47497 | 0.26350 | 5010 ft | 257 kts | 339° |
| 2026-05-05 17:16 | 51.49151 | 0.25273 | 5010 ft | 257 kts | 339° |
| 2026-05-05 17:16 | 51.50810 | 0.24193 | 5007 ft | 257 kts | 339° |
| 2026-05-05 17:16 | 51.52451 | 0.23122 | 5237 ft | 259 kts | 339° |
| 2026-05-05 17:17 | 51.54127 | 0.22029 | 5845 ft | 263 kts | 339° |
| 2026-05-05 17:17 | 51.55832 | 0.20916 | 5990 ft | 265 kts | 339° |
| 2026-05-05 17:17 | 51.57527 | 0.19807 | 5991 ft | 261 kts | 338° |
| 2026-05-05 17:17 | 51.59214 | 0.18703 | 5987 ft | 261 kts | 338° |
| 2026-05-05 17:18 | 51.60898 | 0.17601 | 5993 ft | 260 kts | 338° |
| 2026-05-05 17:18 | 51.62579 | 0.16499 | 5990 ft | 261 kts | 338° |
| 2026-05-05 17:18 | 51.64200 | 0.15278 | 5995 ft | 262 kts | 324° |
| 2026-05-05 17:18 | 51.65436 | 0.13123 | 6298 ft | 265 kts | 306° |
| 2026-05-05 17:19 | 51.66457 | 0.10629 | 6978 ft | 268 kts | 304° |
| 2026-05-05 17:19 | 51.67466 | 0.08071 | 7656 ft | 271 kts | 304° |
| 2026-05-05 17:19 | 51.68492 | 0.05497 | 8340 ft | 274 kts | 304° |
| 2026-05-05 17:19 | 51.69539 | 0.02905 | 9004 ft | 277 kts | 304° |
| 2026-05-05 17:20 | 51.70595 | 0.00279 | 9685 ft | 280 kts | 304° |
| 2026-05-05 17:20 | 51.71647 | -0.02349 | 10342 ft | 285 kts | 304° |
| 2026-05-05 17:20 | 51.72742 | -0.05085 | 10736 ft | 297 kts | 303° |
| 2026-05-05 17:20 | 51.73889 | -0.07952 | 11039 ft | 312 kts | 304° |
| 2026-05-05 17:21 | 51.75253 | -0.10742 | 11410 ft | 322 kts | 320° |
| 2026-05-05 17:21 | 51.77128 | -0.12783 | 11920 ft | 328 kts | 329° |
| 2026-05-05 17:21 | 51.79113 | -0.14645 | 12470 ft | 333 kts | 330° |
| 2026-05-05 17:22 | 51.83174 | -0.18448 | 13535 ft | 342 kts | 328° |
| 2026-05-05 17:22 | 51.85240 | -0.20444 | 14060 ft | 347 kts | 328° |
| 2026-05-05 17:22 | 51.87325 | -0.22439 | 14585 ft | 350 kts | 329° |
| 2026-05-05 17:22 | 51.89437 | -0.24446 | 15097 ft | 354 kts | 328° |
| 2026-05-05 17:23 | 51.91563 | -0.26474 | 15609 ft | 357 kts | 329° |
| 2026-05-05 17:23 | 51.93708 | -0.28532 | 16109 ft | 360 kts | 328° |
| 2026-05-05 17:23 | 51.95876 | -0.30613 | 16604 ft | 363 kts | 329° |
| 2026-05-05 17:23 | 51.98067 | -0.32714 | 17098 ft | 366 kts | 328° |
| 2026-05-05 17:24 | 52.00271 | -0.34829 | 17573 ft | 370 kts | 329° |
| 2026-05-05 17:24 | 52.02472 | -0.36947 | 18055 ft | 373 kts | 328° |
| 2026-05-05 17:24 | 52.04712 | -0.39106 | 18502 ft | 376 kts | 328° |
| 2026-05-05 17:24 | 52.06964 | -0.41277 | 18944 ft | 378 kts | 328° |
| 2026-05-05 17:25 | 52.09229 | -0.43464 | 19373 ft | 380 kts | 328° |
| 2026-05-05 17:25 | 52.10743 | -0.44926 | 19661 ft | 381 kts | 327° |
| 2026-05-05 17:25 | 52.13800 | -0.47883 | 20240 ft | 383 kts | 327° |
| 2026-05-05 17:25 | 52.16101 | -0.50112 | 20669 ft | 385 kts | 327° |
| 2026-05-05 17:26 | 52.18381 | -0.52324 | 21081 ft | 387 kts | 327° |
| 2026-05-05 17:26 | 52.20701 | -0.54577 | 21489 ft | 389 kts | 327° |
| 2026-05-05 17:26 | 52.23037 | -0.56848 | 21898 ft | 391 kts | 327° |
| 2026-05-05 17:26 | 52.25381 | -0.59130 | 22301 ft | 393 kts | 327° |
| 2026-05-05 17:27 | 52.27749 | -0.61439 | 22705 ft | 395 kts | 327° |
| 2026-05-05 17:27 | 52.30087 | -0.63722 | 23102 ft | 397 kts | 327° |
| 2026-05-05 17:27 | 52.32466 | -0.66047 | 23489 ft | 400 kts | 327° |
| 2026-05-05 17:27 | 52.34857 | -0.68387 | 23816 ft | 402 kts | 326° |
| 2026-05-05 17:28 | 52.37272 | -0.70752 | 24125 ft | 404 kts | 326° |
| 2026-05-05 17:28 | 52.39699 | -0.73133 | 24427 ft | 406 kts | 326° |
| 2026-05-05 17:28 | 52.42135 | -0.75526 | 24726 ft | 409 kts | 326° |
| 2026-05-05 17:28 | 52.44548 | -0.77900 | 25012 ft | 411 kts | 326° |
| 2026-05-05 17:29 | 52.47013 | -0.80328 | 25293 ft | 413 kts | 326° |
| 2026-05-05 17:29 | 52.49484 | -0.82765 | 25576 ft | 416 kts | 326° |
| 2026-05-05 17:29 | 52.51976 | -0.85226 | 25853 ft | 418 kts | 326° |
| 2026-05-05 17:29 | 52.54480 | -0.87701 | 26132 ft | 420 kts | 326° |
| 2026-05-05 17:30 | 52.56994 | -0.90191 | 26405 ft | 423 kts | 326° |
| 2026-05-05 17:30 | 52.59520 | -0.92695 | 26677 ft | 425 kts | 326° |
| 2026-05-05 17:30 | 52.62062 | -0.95219 | 26944 ft | 427 kts | 326° |
| 2026-05-05 17:30 | 52.64617 | -0.97759 | 27208 ft | 429 kts | 326° |
| 2026-05-05 17:31 | 52.67180 | -1.00312 | 27478 ft | 432 kts | 326° |
| 2026-05-05 17:31 | 52.69723 | -1.02847 | 27736 ft | 434 kts | 326° |
| 2026-05-05 17:31 | 52.72309 | -1.05428 | 27990 ft | 436 kts | 326° |
| 2026-05-05 17:31 | 52.74912 | -1.08029 | 28248 ft | 437 kts | 326° |
| 2026-05-05 17:32 | 52.77524 | -1.10645 | 28516 ft | 439 kts | 326° |
| 2026-05-05 17:32 | 52.79264 | -1.12390 | 28687 ft | 440 kts | 326° |
| 2026-05-05 17:32 | 52.81891 | -1.15026 | 28938 ft | 442 kts | 326° |
| 2026-05-05 17:32 | 52.84528 | -1.17676 | 29187 ft | 444 kts | 326° |
| 2026-05-05 17:33 | 52.87178 | -1.20343 | 29431 ft | 446 kts | 326° |
| 2026-05-05 17:33 | 52.89835 | -1.23021 | 29670 ft | 447 kts | 326° |
| 2026-05-05 17:33 | 52.92496 | -1.25708 | 29906 ft | 449 kts | 326° |
| 2026-05-05 17:33 | 52.95171 | -1.28411 | 30128 ft | 451 kts | 326° |
| 2026-05-05 17:34 | 52.97820 | -1.31093 | 30321 ft | 453 kts | 326° |
| 2026-05-05 17:34 | 53.00547 | -1.33858 | 30530 ft | 454 kts | 327° |
| 2026-05-05 17:34 | 53.03218 | -1.36570 | 30727 ft | 455 kts | 327° |
| 2026-05-05 17:34 | 53.05924 | -1.39322 | 30930 ft | 456 kts | 326° |
| 2026-05-05 17:35 | 53.08641 | -1.42088 | 31190 ft | 456 kts | 326° |
| 2026-05-05 17:35 | 53.11345 | -1.44846 | 31477 ft | 455 kts | 327° |
| 2026-05-05 17:35 | 53.14042 | -1.47601 | 31760 ft | 455 kts | 326° |
| 2026-05-05 17:35 | 53.16739 | -1.50360 | 32043 ft | 454 kts | 327° |
| 2026-05-05 17:36 | 53.19432 | -1.53121 | 32322 ft | 453 kts | 327° |
| 2026-05-05 17:36 | 53.22115 | -1.55873 | 32619 ft | 452 kts | 327° |
| 2026-05-05 17:36 | 53.24793 | -1.58623 | 32915 ft | 451 kts | 328° |
| 2026-05-05 17:36 | 53.27464 | -1.61373 | 33196 ft | 450 kts | 327° |
| 2026-05-05 17:37 | 53.30127 | -1.64119 | 33485 ft | 449 kts | 327° |
| 2026-05-05 17:37 | 53.32786 | -1.66862 | 33754 ft | 449 kts | 328° |
| 2026-05-05 17:37 | 53.35444 | -1.69610 | 33999 ft | 446 kts | 327° |
| 2026-05-05 17:38 | 53.40682 | -1.75037 | 34008 ft | 439 kts | 327° |
| 2026-05-05 17:38 | 53.45864 | -1.80420 | 34016 ft | 437 kts | 327° |
| 2026-05-05 17:39 | 53.51002 | -1.85771 | 34017 ft | 437 kts | 327° |
| 2026-05-05 17:39 | 53.56170 | -1.91164 | 34018 ft | 437 kts | 327° |
| 2026-05-05 17:40 | 53.61349 | -1.96587 | 34015 ft | 437 kts | 327° |
| 2026-05-05 17:40 | 53.66511 | -2.02020 | 34014 ft | 437 kts | 327° |
| 2026-05-05 17:41 | 53.71639 | -2.07429 | 34024 ft | 437 kts | 327° |
| 2026-05-05 17:41 | 53.77031 | -2.12149 | 34019 ft | 439 kts | 336° |
| 2026-05-05 17:42 | 53.82709 | -2.15992 | 34031 ft | 438 kts | 336° |
| 2026-05-05 17:42 | 53.88331 | -2.19848 | 34033 ft | 438 kts | 335° |
| 2026-05-05 17:43 | 53.93987 | -2.23719 | 34035 ft | 438 kts | 336° |
| 2026-05-05 17:43 | 53.99648 | -2.27611 | 34031 ft | 439 kts | 335° |
| 2026-05-05 17:44 | 54.05314 | -2.31518 | 34042 ft | 439 kts | 335° |
| 2026-05-05 17:44 | 54.10985 | -2.35438 | 34030 ft | 439 kts | 335° |
| 2026-05-05 17:45 | 54.16615 | -2.39342 | 34038 ft | 439 kts | 335° |
| 2026-05-05 17:45 | 54.22279 | -2.43281 | 34052 ft | 439 kts | 335° |
| 2026-05-05 17:46 | 54.27950 | -2.47237 | 34039 ft | 440 kts | 334° |
| 2026-05-05 17:46 | 54.33614 | -2.51199 | 34043 ft | 440 kts | 334° |
| 2026-05-05 17:47 | 54.39254 | -2.55157 | 34047 ft | 440 kts | 334° |
| 2026-05-05 17:47 | 54.44916 | -2.59142 | 34047 ft | 440 kts | 334° |
| 2026-05-05 17:48 | 54.50579 | -2.63139 | 34030 ft | 439 kts | 334° |
| 2026-05-05 17:48 | 54.53426 | -2.65156 | 33645 ft | 444 kts | 334° |
| 2026-05-05 17:48 | 54.56299 | -2.67192 | 32989 ft | 447 kts | 334° |
| 2026-05-05 17:48 | 54.59168 | -2.69226 | 32364 ft | 446 kts | 334° |
| 2026-05-05 17:49 | 54.62039 | -2.71265 | 31723 ft | 445 kts | 334° |
| 2026-05-05 17:49 | 54.64910 | -2.73309 | 31084 ft | 444 kts | 334° |
| 2026-05-05 17:49 | 54.67727 | -2.75318 | 30462 ft | 443 kts | 334° |
| 2026-05-05 17:49 | 54.70578 | -2.77354 | 29788 ft | 442 kts | 334° |
| 2026-05-05 17:50 | 54.73413 | -2.79381 | 29168 ft | 439 kts | 334° |
| 2026-05-05 17:50 | 54.76225 | -2.81394 | 28524 ft | 435 kts | 335° |
| 2026-05-05 17:50 | 54.79017 | -2.83396 | 27917 ft | 432 kts | 335° |
| 2026-05-05 17:50 | 54.81778 | -2.85380 | 27305 ft | 429 kts | 335° |
| 2026-05-05 17:51 | 54.84525 | -2.87356 | 26700 ft | 425 kts | 335° |
| 2026-05-05 17:51 | 54.87255 | -2.89324 | 26181 ft | 421 kts | 335° |
| 2026-05-05 17:51 | 54.89920 | -2.91244 | 25963 ft | 409 kts | 334° |
| 2026-05-05 17:51 | 54.92521 | -2.93122 | 25631 ft | 401 kts | 334° |
| 2026-05-05 17:52 | 54.95080 | -2.94976 | 25237 ft | 396 kts | 334° |
| 2026-05-05 17:52 | 54.97608 | -2.96810 | 24827 ft | 391 kts | 334° |
| 2026-05-05 17:52 | 55.00079 | -2.98602 | 24415 ft | 387 kts | 335° |
| 2026-05-05 17:52 | 55.02558 | -3.00402 | 23995 ft | 384 kts | 335° |
| 2026-05-05 17:53 | 55.05013 | -3.02189 | 23558 ft | 381 kts | 334° |
| 2026-05-05 17:53 | 55.07445 | -3.03960 | 23054 ft | 377 kts | 334° |
| 2026-05-05 17:53 | 55.09861 | -3.05722 | 22559 ft | 374 kts | 334° |
| 2026-05-05 17:53 | 55.12254 | -3.07470 | 22075 ft | 371 kts | 334° |
| 2026-05-05 17:54 | 55.14631 | -3.09209 | 21604 ft | 368 kts | 334° |
| 2026-05-05 17:54 | 55.16990 | -3.10936 | 21143 ft | 365 kts | 334° |
| 2026-05-05 17:54 | 55.19329 | -3.12651 | 20681 ft | 363 kts | 334° |
| 2026-05-05 17:54 | 55.21637 | -3.14344 | 20388 ft | 356 kts | 334° |
| 2026-05-05 17:55 | 55.23895 | -3.16002 | 20204 ft | 347 kts | 334° |
| 2026-05-05 17:55 | 55.26102 | -3.17627 | 19924 ft | 341 kts | 334° |
| 2026-05-05 17:55 | 55.28278 | -3.19233 | 19598 ft | 337 kts | 334° |
| 2026-05-05 17:55 | 55.30404 | -3.20801 | 19267 ft | 334 kts | 334° |
| 2026-05-05 17:56 | 55.32535 | -3.22375 | 18922 ft | 331 kts | 334° |
| 2026-05-05 17:56 | 55.34651 | -3.23939 | 18581 ft | 329 kts | 334° |
| 2026-05-05 17:56 | 55.36752 | -3.25494 | 18224 ft | 326 kts | 334° |
| 2026-05-05 17:56 | 55.38837 | -3.27040 | 17838 ft | 324 kts | 334° |
| 2026-05-05 17:57 | 55.40907 | -3.28576 | 17456 ft | 322 kts | 334° |
| 2026-05-05 17:57 | 55.42960 | -3.30101 | 17096 ft | 319 kts | 334° |
| 2026-05-05 17:57 | 55.44992 | -3.31611 | 16865 ft | 313 kts | 334° |
| 2026-05-05 17:57 | 55.46973 | -3.33084 | 16707 ft | 305 kts | 334° |
| 2026-05-05 17:58 | 55.48901 | -3.34522 | 16529 ft | 298 kts | 333° |
| 2026-05-05 17:58 | 55.50644 | -3.36340 | 16342 ft | 286 kts | 317° |
| 2026-05-05 17:58 | 55.52167 | -3.38596 | 16023 ft | 288 kts | 317° |
| 2026-05-05 17:58 | 55.53701 | -3.40901 | 15636 ft | 289 kts | 317° |
| 2026-05-05 17:59 | 55.55241 | -3.43195 | 15261 ft | 290 kts | 317° |
| 2026-05-05 17:59 | 55.56793 | -3.45495 | 14896 ft | 291 kts | 317° |
| 2026-05-05 17:59 | 55.58343 | -3.47801 | 14476 ft | 293 kts | 317° |
| 2026-05-05 17:59 | 55.59886 | -3.50103 | 14059 ft | 295 kts | 317° |
| 2026-05-05 18:00 | 55.61469 | -3.52467 | 13538 ft | 298 kts | 318° |
| 2026-05-05 18:00 | 55.63065 | -3.54852 | 13041 ft | 301 kts | 318° |
| 2026-05-05 18:00 | 55.64649 | -3.57216 | 12497 ft | 292 kts | 318° |
| 2026-05-05 18:00 | 55.66183 | -3.59491 | 11953 ft | 283 kts | 318° |
| 2026-05-05 18:01 | 55.67652 | -3.61670 | 11419 ft | 276 kts | 318° |
| 2026-05-05 18:01 | 55.69104 | -3.63831 | 10903 ft | 269 kts | 318° |
| 2026-05-05 18:01 | 55.70525 | -3.65949 | 10356 ft | 265 kts | 318° |
| 2026-05-05 18:01 | 55.71932 | -3.68049 | 9710 ft | 264 kts | 319° |
| 2026-05-05 18:02 | 55.73338 | -3.70146 | 9040 ft | 263 kts | 319° |
| 2026-05-05 18:02 | 55.74737 | -3.72236 | 8370 ft | 262 kts | 319° |
| 2026-05-05 18:02 | 55.76117 | -3.74313 | 7718 ft | 259 kts | 325° |
| 2026-05-05 18:02 | 55.77752 | -3.75627 | 7091 ft | 259 kts | 347° |
| 2026-05-05 18:03 | 55.79509 | -3.75783 | 6566 ft | 245 kts | 5° |
| 2026-05-05 18:03 | 55.81176 | -3.74905 | 6011 ft | 255 kts | 25° |
| 2026-05-05 18:03 | 55.82608 | -3.73121 | 5330 ft | 250 kts | 44° |
| 2026-05-05 18:03 | 55.83651 | -3.70742 | 4605 ft | 243 kts | 56° |
| 2026-05-05 18:04 | 55.84488 | -3.68275 | 4142 ft | 220 kts | 60° |
| 2026-05-05 18:04 | 55.85217 | -3.66026 | 3778 ft | 201 kts | 60° |
| 2026-05-05 18:04 | 55.85898 | -3.64014 | 3490 ft | 176 kts | 60° |
| 2026-05-05 18:04 | 55.86479 | -3.62310 | 3239 ft | 147 kts | 60° |
| 2026-05-05 18:05 | 55.86976 | -3.60856 | 2897 ft | 131 kts | 61° |
| 2026-05-05 18:05 | 55.87443 | -3.59484 | 2585 ft | 128 kts | 62° |
| 2026-05-05 18:05 | 55.87900 | -3.58140 | 2269 ft | 126 kts | 62° |
| 2026-05-05 18:05 | 55.88349 | -3.56817 | 1976 ft | 126 kts | 62° |
| 2026-05-05 18:06 | 55.88797 | -3.55497 | 1704 ft | 124 kts | 62° |
| 2026-05-05 18:06 | 55.88950 | -3.55049 | 1605 ft | 126 kts | 62° |
| 2026-05-05 18:06 | 55.89701 | -3.52836 | 1428 ft | 126 kts | 62° |
| 2026-05-05 18:06 | 55.90151 | -3.51503 | 1494 ft | 124 kts | 62° |
| 2026-05-05 18:07 | 55.90595 | -3.50200 | 1494 ft | 122 kts | 63° |
| 2026-05-05 18:07 | 55.91044 | -3.48875 | 1490 ft | 127 kts | 63° |
| 2026-05-05 18:07 | 55.91502 | -3.47515 | 1305 ft | 126 kts | 60° |
| 2026-05-05 18:07 | 55.91966 | -3.46175 | 1014 ft | 129 kts | 62° |
| 2026-05-05 18:08 | 55.92434 | -3.44862 | 755 ft | 126 kts | 61° |
| 2026-05-05 18:08 | 55.92896 | -3.43560 | 640 ft | 122 kts | 64° |
| 2026-05-05 18:08 | 55.93322 | -3.42223 | 536 ft | 128 kts | 61° |
| 2026-05-05 18:08 | 55.93784 | -3.40861 | 415 ft | 129 kts | 64° |
| 2026-05-05 18:09 | 55.94238 | -3.39544 | 221 ft | 125 kts | 64° |
| 2026-05-05 18:09 | 55.94672 | -3.38206 | 121 ft | 120 kts | 62° |
| 2026-05-05 18:09 | 55.95006 | -3.37204 | 107 ft | 65 kts | 59° |
| 2026-05-05 18:09 | 55.95166 | -3.36751 | 110 ft | 28 kts | 56° |
| 2026-05-05 18:10 | 55.95254 | -3.36478 | 103 ft | 18 kts | 78° |
| 2026-05-05 18:10 | 55.95204 | -3.36364 | 103 ft | 8 kts | 148° |
| 2026-05-05 18:10 | 55.95182 | -3.36340 | 103 ft | 3 kts | 148° |
| 2026-05-05 18:10 | 55.95180 | -3.36337 | 103 ft | 0 kts | 148° |
| 2026-05-05 18:11 | 55.95173 | -3.36329 | 104 ft | 4 kts | 148° |
| 2026-05-05 18:11 | 55.95130 | -3.36320 | 105 ft | 9 kts | 205° |
| 2026-05-05 18:11 | 55.95082 | -3.36431 | 108 ft | 14 kts | 239° |
| 2026-05-05 18:11 | 55.95017 | -3.36627 | 108 ft | 22 kts | 238° |
| 2026-05-05 18:12 | 55.94953 | -3.36805 | 107 ft | 15 kts | 222° |
| 2026-05-05 18:12 | 55.94865 | -3.36778 | 106 ft | 13 kts | 170° |
| 2026-05-05 18:12 | 55.94771 | -3.36765 | 106 ft | 13 kts | 158° |
| 2026-05-05 18:12 | 55.94695 | -3.36734 | 107 ft | 11 kts | 176° |
| 2026-05-05 18:13 | 55.94629 | -3.36733 | 107 ft | 8 kts | 181° |
| 2026-05-05 18:13 | 55.94575 | -3.36724 | 107 ft | 3 kts | 143° |
| 2026-05-05 18:13 | 55.94574 | -3.36707 | 106 ft | 1 kts | 91° |
| 2026-05-05 18:13 | 55.94573 | -3.36656 | 107 ft | 7 kts | 91° |
| 2026-05-05 18:14 | 55.94573 | -3.36626 | 107 ft | 0 kts | 90° |